sensor_id;sensor_type;location;lat;lon;timestamp;pressure;altitude;pressure_sealevel;temperature;humidity
44138;BME280;29800;55.942;37.314;2023-07-13T00:00:54;98563.31;;;11.98;83.86
44138;BME280;29800;55.942;37.314;2023-07-13T00:04:06;98555.63;;;12.00;83.91
44138;BME280;29800;55.942;37.314;2023-07-13T00:07:03;98561.09;;;12.00;84.34
44138;BME280;29800;55.942;37.314;2023-07-13T00:09:29;98552.41;;;11.92;84.34
44138;BME280;29800;55.942;37.314;2023-07-13T00:12:36;98557.03;;;11.97;84.51
44138;BME280;29800;55.942;37.314;2023-07-13T00:21:11;98557.84;;;11.98;83.78
44138;BME280;29800;55.942;37.314;2023-07-13T00:23:49;98553.50;;;11.91;84.29
44138;BME280;29800;55.942;37.314;2023-07-13T00:27:01;98556.19;;;11.97;84.75
44138;BME280;29800;55.942;37.314;2023-07-13T00:33:20;98551.00;;;11.95;85.33
44138;BME280;29800;55.942;37.314;2023-07-13T00:36:01;98550.22;;;11.89;85.20
44138;BME280;29800;55.942;37.314;2023-07-13T00:42:11;98545.78;;;11.93;85.34
44138;BME280;29800;55.942;37.314;2023-07-13T00:47:56;98542.53;;;11.91;85.30
44138;BME280;29800;55.942;37.314;2023-07-13T00:51:05;98536.22;;;11.91;85.53
44138;BME280;29800;55.942;37.314;2023-07-13T00:54:24;98538.94;;;11.91;85.63
44138;BME280;29800;55.942;37.314;2023-07-13T00:57:38;98539.25;;;11.89;85.35
44138;BME280;29800;55.942;37.314;2023-07-13T01:00:54;98541.97;;;11.89;85.67
44138;BME280;29800;55.942;37.314;2023-07-13T01:03:51;98536.78;;;11.88;86.01
44138;BME280;29800;55.942;37.314;2023-07-13T01:06:26;98539.25;;;11.89;86.50
44138;BME280;29800;55.942;37.314;2023-07-13T01:09:20;98541.47;;;11.87;86.39
44138;BME280;29800;55.942;37.314;2023-07-13T01:12:23;98529.63;;;11.92;86.68
44138;BME280;29800;55.942;37.314;2023-07-13T01:15:40;98535.97;;;11.92;86.80
44138;BME280;29800;55.942;37.314;2023-07-13T01:18:20;98530.50;;;11.87;86.63
44138;BME280;29800;55.942;37.314;2023-07-13T01:21:06;98535.41;;;11.90;87.00
44138;BME280;29800;55.942;37.314;2023-07-13T01:24:00;98531.59;;;11.86;86.46
44138;BME280;29800;55.942;37.314;2023-07-13T01:29:40;98523.38;;;11.86;86.75
44138;BME280;29800;55.942;37.314;2023-07-13T01:32:44;98526.63;;;11.88;86.97
44138;BME280;29800;55.942;37.314;2023-07-13T01:35:47;98525.00;;;11.92;87.20
44138;BME280;29800;55.942;37.314;2023-07-13T01:38:33;98521.97;;;11.89;86.96
44138;BME280;29800;55.942;37.314;2023-07-13T01:44:23;98520.03;;;11.94;87.58
44138;BME280;29800;55.942;37.314;2023-07-13T01:46:49;98521.69;;;11.90;87.25
44138;BME280;29800;55.942;37.314;2023-07-13T01:49:52;98518.94;;;11.90;87.24
44138;BME280;29800;55.942;37.314;2023-07-13T01:55:15;98521.41;;;11.92;87.51
44138;BME280;29800;55.942;37.314;2023-07-13T01:58:14;98512.09;;;11.93;87.36
44138;BME280;29800;55.942;37.314;2023-07-13T02:04:16;98504.38;;;11.95;87.59
44138;BME280;29800;55.942;37.314;2023-07-13T02:10:17;98502.72;;;11.99;87.93
44138;BME280;29800;55.942;37.314;2023-07-13T02:12:54;98501.34;;;11.97;87.79
44138;BME280;29800;55.942;37.314;2023-07-13T02:18:24;98500.53;;;11.96;87.61
44138;BME280;29800;55.942;37.314;2023-07-13T02:21:42;98504.88;;;12.02;87.63
44138;BME280;29800;55.942;37.314;2023-07-13T02:24:18;98492.03;;;11.98;87.69
44138;BME280;29800;55.942;37.314;2023-07-13T02:27:52;98485.97;;;12.01;87.89
44138;BME280;29800;55.942;37.314;2023-07-13T02:31:08;98487.06;;;12.00;87.55
44138;BME280;29800;55.942;37.314;2023-07-13T02:37:35;98481.47;;;12.10;87.59
44138;BME280;29800;55.942;37.314;2023-07-13T02:43:30;98480.38;;;12.11;87.47
44138;BME280;29800;55.942;37.314;2023-07-13T02:46:24;98475.94;;;12.15;88.23
44138;BME280;29800;55.942;37.314;2023-07-13T02:52:49;98488.41;;;12.26;88.01
44138;BME280;29800;55.942;37.314;2023-07-13T02:55:43;98485.75;;;12.21;87.40
44138;BME280;29800;55.942;37.314;2023-07-13T03:01:42;98484.34;;;12.24;87.74
44138;BME280;29800;55.942;37.314;2023-07-13T03:05:07;98476.88;;;12.29;87.63
44138;BME280;29800;55.942;37.314;2023-07-13T03:08:04;98482.94;;;12.26;87.55
44138;BME280;29800;55.942;37.314;2023-07-13T03:14:51;98481.47;;;12.34;87.83
44138;BME280;29800;55.942;37.314;2023-07-13T03:17:17;98475.78;;;12.30;87.67
44138;BME280;29800;55.942;37.314;2023-07-13T03:20:32;98480.69;;;12.34;87.65
44138;BME280;29800;55.942;37.314;2023-07-13T03:23:25;98480.09;;;12.37;87.93
44138;BME280;29800;55.942;37.314;2023-07-13T03:29:14;98477.56;;;12.40;88.01
44138;BME280;29800;55.942;37.314;2023-07-13T03:32:00;98484.94;;;12.45;88.12
44138;BME280;29800;55.942;37.314;2023-07-13T03:35:15;98488.78;;;12.44;87.68
44138;BME280;29800;55.942;37.314;2023-07-13T03:38:00;98492.00;;;12.51;88.05
44138;BME280;29800;55.942;37.314;2023-07-13T03:44:01;98493.31;;;12.54;87.85
44138;BME280;29800;55.942;37.314;2023-07-13T03:46:37;98492.16;;;12.60;88.02
44138;BME280;29800;55.942;37.314;2023-07-13T03:49:03;98480.97;;;12.75;88.10
44138;BME280;29800;55.942;37.314;2023-07-13T03:54:52;98488.72;;;12.92;87.04
44138;BME280;29800;55.942;37.314;2023-07-13T04:01:13;98493.91;;;13.13;85.99
44138;BME280;29800;55.942;37.314;2023-07-13T04:03:58;98492.22;;;13.17;85.29
44138;BME280;29800;55.942;37.314;2023-07-13T04:13:02;98490.78;;;13.19;84.43
44138;BME280;29800;55.942;37.314;2023-07-13T04:15:41;98505.72;;;13.13;84.49
44138;BME280;29800;55.942;37.314;2023-07-13T04:18:07;98498.91;;;13.11;84.37
44138;BME280;29800;55.942;37.314;2023-07-13T04:24:25;98500.47;;;13.17;85.09
44138;BME280;29800;55.942;37.314;2023-07-13T04:27:38;98499.03;;;13.19;84.77
44138;BME280;29800;55.942;37.314;2023-07-13T04:33:38;98495.19;;;13.20;84.45
44138;BME280;29800;55.942;37.314;2023-07-13T04:36:41;98500.09;;;13.23;84.81
44138;BME280;29800;55.942;37.314;2023-07-13T04:39:44;98488.22;;;13.28;85.14
44138;BME280;29800;55.942;37.314;2023-07-13T04:43:09;98484.03;;;13.31;84.97
44138;BME280;29800;55.942;37.314;2023-07-13T04:45:54;98488.16;;;13.33;85.15
44138;BME280;29800;55.942;37.314;2023-07-13T04:49:16;98484.72;;;13.41;85.16
44138;BME280;29800;55.942;37.314;2023-07-13T04:52:02;98485.53;;;13.42;84.63
44138;BME280;29800;55.942;37.314;2023-07-13T04:58:27;98511.22;;;13.51;84.25
44138;BME280;29800;55.942;37.314;2023-07-13T05:01:24;98510.31;;;13.56;84.08
44138;BME280;29800;55.942;37.314;2023-07-13T05:08:11;98504.28;;;13.73;84.53
44138;BME280;29800;55.942;37.314;2023-07-13T05:11:14;98509.09;;;13.81;84.14
44138;BME280;29800;55.942;37.314;2023-07-13T05:17:04;98499.53;;;13.92;83.95
44138;BME280;29800;55.942;37.314;2023-07-13T05:20:20;98500.47;;;14.02;84.33
44138;BME280;29800;55.942;37.314;2023-07-13T05:23:08;98505.06;;;14.06;83.49
44138;BME280;29800;55.942;37.314;2023-07-13T05:35:34;98496.34;;;14.32;80.76
44138;BME280;29800;55.942;37.314;2023-07-13T05:38:21;98486.34;;;14.36;80.49
44138;BME280;29800;55.942;37.314;2023-07-13T05:41:06;98487.75;;;14.47;79.86
44138;BME280;29800;55.942;37.314;2023-07-13T05:47:22;98470.44;;;14.61;79.78
44138;BME280;29800;55.942;37.314;2023-07-13T05:56:27;98461.25;;;14.79;78.11
44138;BME280;29800;55.942;37.314;2023-07-13T06:02:23;98460.59;;;14.96;78.21
44138;BME280;29800;55.942;37.314;2023-07-13T06:05:08;98471.81;;;15.00;78.60
44138;BME280;29800;55.942;37.314;2023-07-13T06:14:26;98457.06;;;15.18;76.09
44138;BME280;29800;55.942;37.314;2023-07-13T06:19:56;98445.19;;;15.32;74.39
44138;BME280;29800;55.942;37.314;2023-07-13T06:23:18;98454.84;;;15.43;73.61
44138;BME280;29800;55.942;37.314;2023-07-13T06:29:19;98454.31;;;15.41;72.34
44138;BME280;29800;55.942;37.314;2023-07-13T06:36:44;98450.78;;;15.49;72.42
44138;BME280;29800;55.942;37.314;2023-07-13T06:39:29;98452.88;;;15.43;71.94
44138;BME280;29800;55.942;37.314;2023-07-13T06:42:23;98454.69;;;15.48;71.92
44138;BME280;29800;55.942;37.314;2023-07-13T06:45:44;98449.50;;;15.47;71.34
44138;BME280;29800;55.942;37.314;2023-07-13T06:48:18;98449.50;;;15.47;71.55
44138;BME280;29800;55.942;37.314;2023-07-13T06:57:47;98448.31;;;15.61;70.63
44138;BME280;29800;55.942;37.314;2023-07-13T07:00:52;98444.28;;;15.68;70.35
44138;BME280;29800;55.942;37.314;2023-07-13T07:03:49;98432.09;;;15.69;70.25
44138;BME280;29800;55.942;37.314;2023-07-13T07:07:01;98441.09;;;15.74;70.27
44138;BME280;29800;55.942;37.314;2023-07-13T07:10:05;98438.03;;;15.76;69.99
44138;BME280;29800;55.942;37.314;2023-07-13T07:13:11;98442.69;;;15.75;69.75
44138;BME280;29800;55.942;37.314;2023-07-13T07:15:55;98448.19;;;15.75;70.73
44138;BME280;29800;55.942;37.314;2023-07-13T07:19:18;98453.22;;;15.73;71.59
44138;BME280;29800;55.942;37.314;2023-07-13T07:22:15;98456.94;;;15.69;71.20
44138;BME280;29800;55.942;37.314;2023-07-13T07:25:19;98461.97;;;15.67;71.97
44138;BME280;29800;55.942;37.314;2023-07-13T07:28:16;98454.00;;;15.65;71.59
44138;BME280;29800;55.942;37.314;2023-07-13T07:31:06;98458.69;;;15.65;72.03
44138;BME280;29800;55.942;37.314;2023-07-13T07:34:22;98460.94;;;15.62;72.01
44138;BME280;29800;55.942;37.314;2023-07-13T07:47:02;98460.31;;;15.66;71.34
44138;BME280;29800;55.942;37.314;2023-07-13T07:49:47;98468.28;;;15.67;70.87
44138;BME280;29800;55.942;37.314;2023-07-13T07:52:31;98458.41;;;15.66;70.84
44138;BME280;29800;55.942;37.314;2023-07-13T07:55:28;98455.19;;;15.73;70.63
44138;BME280;29800;55.942;37.314;2023-07-13T07:58:35;98461.72;;;15.77;70.72
44138;BME280;29800;55.942;37.314;2023-07-13T08:01:47;98463.22;;;15.83;70.93
44138;BME280;29800;55.942;37.314;2023-07-13T08:04:51;98466.78;;;15.84;71.36
44138;BME280;29800;55.942;37.314;2023-07-13T08:07:55;98461.72;;;15.77;71.58
44138;BME280;29800;55.942;37.314;2023-07-13T08:10:21;98473.97;;;15.71;72.06
44138;BME280;29800;55.942;37.314;2023-07-13T08:13:15;98475.00;;;15.75;72.79
44138;BME280;29800;55.942;37.314;2023-07-13T08:19:22;98470.88;;;15.86;72.50
44138;BME280;29800;55.942;37.314;2023-07-13T08:25:23;98470.13;;;16.03;72.70
44138;BME280;29800;55.942;37.314;2023-07-13T08:28:22;98478.09;;;16.05;72.75
44138;BME280;29800;55.942;37.314;2023-07-13T08:33:52;98468.25;;;16.12;72.70
44138;BME280;29800;55.942;37.314;2023-07-13T08:37:07;98469.88;;;16.13;72.05
44138;BME280;29800;55.942;37.314;2023-07-13T08:40:05;98476.25;;;16.23;71.99
44138;BME280;29800;55.942;37.314;2023-07-13T08:43:50;98477.56;;;16.25;71.86
44138;BME280;29800;55.942;37.314;2023-07-13T08:46:45;98478.38;;;16.26;71.93
44138;BME280;29800;55.942;37.314;2023-07-13T09:03:01;98509.75;;;16.39;73.09
44138;BME280;29800;55.942;37.314;2023-07-13T09:06:20;98505.38;;;16.38;72.49
44138;BME280;29800;55.942;37.314;2023-07-13T09:18:45;98513.66;;;16.38;71.69
44138;BME280;29800;55.942;37.314;2023-07-13T09:21:24;98500.00;;;16.32;71.83
44138;BME280;29800;55.942;37.314;2023-07-13T09:30:54;98481.69;;;16.45;73.82
44138;BME280;29800;55.942;37.314;2023-07-13T09:34:12;98486.72;;;16.43;74.11
44138;BME280;29800;55.942;37.314;2023-07-13T09:43:15;98476.16;;;16.45;75.28
44138;BME280;29800;55.942;37.314;2023-07-13T09:45:46;98481.19;;;16.43;75.42
44138;BME280;29800;55.942;37.314;2023-07-13T09:48:50;98476.66;;;16.47;75.47
44138;BME280;29800;55.942;37.314;2023-07-13T09:51:44;98480.50;;;16.38;75.33
44138;BME280;29800;55.942;37.314;2023-07-13T09:54:38;98476.81;;;16.42;75.58
44138;BME280;29800;55.942;37.314;2023-07-13T09:57:46;98481.53;;;16.42;75.44
44138;BME280;29800;55.942;37.314;2023-07-13T10:00:42;98482.78;;;16.35;75.53
44138;BME280;29800;55.942;37.314;2023-07-13T10:06:17;98489.63;;;16.38;75.52
44138;BME280;29800;55.942;37.314;2023-07-13T10:12:14;98486.53;;;16.40;75.94
44138;BME280;29800;55.942;37.314;2023-07-13T10:15:31;98485.25;;;16.46;76.79
44138;BME280;29800;55.942;37.314;2023-07-13T10:18:55;98492.25;;;16.43;76.97
44138;BME280;29800;55.942;37.314;2023-07-13T10:22:31;98491.63;;;16.46;77.12
44138;BME280;29800;55.942;37.314;2023-07-13T10:31:45;98507.66;;;16.44;76.56
44138;BME280;29800;55.942;37.314;2023-07-13T10:34:43;98493.84;;;16.35;76.31
44138;BME280;29800;55.942;37.314;2023-07-13T10:38:13;98501.16;;;16.40;76.46
44138;BME280;29800;55.942;37.314;2023-07-13T10:48:12;98498.81;;;16.25;75.44
44138;BME280;29800;55.942;37.314;2023-07-13T10:51:36;98503.19;;;16.17;75.30
44138;BME280;29800;55.942;37.314;2023-07-13T11:00:30;98495.84;;;16.12;75.16
44138;BME280;29800;55.942;37.314;2023-07-13T11:12:57;98503.19;;;16.17;75.81
44138;BME280;29800;55.942;37.314;2023-07-13T11:22:11;98522.22;;;16.27;76.29
44138;BME280;29800;55.942;37.314;2023-07-13T11:24:49;98517.50;;;16.28;76.55
44138;BME280;29800;55.942;37.314;2023-07-13T11:28:24;98511.34;;;16.31;76.72
44138;BME280;29800;55.942;37.314;2023-07-13T11:31:15;98518.97;;;16.25;76.39
44138;BME280;29800;55.942;37.314;2023-07-13T11:34:15;98511.19;;;16.27;76.73
44138;BME280;29800;55.942;37.314;2023-07-13T11:40:45;98507.28;;;16.28;76.71
44138;BME280;29800;55.942;37.314;2023-07-13T11:43:15;98518.81;;;16.30;76.67
44138;BME280;29800;55.942;37.314;2023-07-13T11:48:58;98516.78;;;16.45;77.18
44138;BME280;29800;55.942;37.314;2023-07-13T11:52:20;98516.16;;;16.48;77.40
44138;BME280;29800;55.942;37.314;2023-07-13T11:55:02;98526.69;;;16.46;77.25
44138;BME280;29800;55.942;37.314;2023-07-13T11:58:08;98525.88;;;16.45;77.45
44138;BME280;29800;55.942;37.314;2023-07-13T12:00:36;98523.44;;;16.44;77.59
44138;BME280;29800;55.942;37.314;2023-07-13T12:03:04;98523.44;;;16.44;77.35
44138;BME280;29800;55.942;37.314;2023-07-13T12:06:04;98512.94;;;16.54;77.56
44138;BME280;29800;55.942;37.314;2023-07-13T12:09:11;98504.97;;;16.53;77.84
44138;BME280;29800;55.942;37.314;2023-07-13T12:12:14;98499.13;;;16.54;77.45
44138;BME280;29800;55.942;37.314;2023-07-13T12:17:45;98492.44;;;16.56;77.76
44138;BME280;29800;55.942;37.314;2023-07-13T12:24:11;98498.13;;;16.59;78.12
44138;BME280;29800;55.942;37.314;2023-07-13T12:27:00;98499.63;;;16.65;78.45
44138;BME280;29800;55.942;37.314;2023-07-13T12:30:04;98505.94;;;16.66;78.28
44138;BME280;29800;55.942;37.314;2023-07-13T12:33:28;98494.91;;;16.66;77.99
44138;BME280;29800;55.942;37.314;2023-07-13T12:36:22;98489.06;;;16.67;77.69
44138;BME280;29800;55.942;37.314;2023-07-13T12:39:38;98501.94;;;16.81;78.10
44138;BME280;29800;55.942;37.314;2023-07-13T12:42:37;98481.94;;;16.84;78.25
44138;BME280;29800;55.942;37.314;2023-07-13T12:45:55;98486.06;;;16.86;78.27
44138;BME280;29800;55.942;37.314;2023-07-13T12:52:03;98492.91;;;16.89;77.48
44138;BME280;29800;55.942;37.314;2023-07-13T12:57:17;98488.47;;;16.79;77.16
44138;BME280;29800;55.942;37.314;2023-07-13T13:00:01;98484.44;;;17.03;77.07
44138;BME280;29800;55.942;37.314;2023-07-13T13:02:49;98480.22;;;16.88;76.53
44138;BME280;29800;55.942;37.314;2023-07-13T13:05:43;98487.47;;;16.84;76.59
44138;BME280;29800;55.942;37.314;2023-07-13T13:08:29;98491.75;;;16.90;77.27
44138;BME280;29800;55.942;37.314;2023-07-13T13:15:03;98483.28;;;16.95;76.83
44138;BME280;29800;55.942;37.314;2023-07-13T13:18:00;98493.22;;;16.87;76.65
44138;BME280;29800;55.942;37.314;2023-07-13T13:23:46;98497.91;;;16.87;76.62
44138;BME280;29800;55.942;37.314;2023-07-13T13:30:23;98489.81;;;16.99;76.50
44138;BME280;29800;55.942;37.314;2023-07-13T13:33:21;98481.69;;;16.94;75.77
44138;BME280;29800;55.942;37.314;2023-07-13T13:36:21;98487.06;;;16.90;76.21
44138;BME280;29800;55.942;37.314;2023-07-13T13:39:46;98486.56;;;16.97;76.21
44138;BME280;29800;55.942;37.314;2023-07-13T13:54:42;98500.34;;;16.88;75.96
44138;BME280;29800;55.942;37.314;2023-07-13T13:57:58;98503.16;;;16.97;76.52
44138;BME280;29800;55.942;37.314;2023-07-13T14:05:14;98471.28;;;16.91;75.93
44138;BME280;29800;55.942;37.314;2023-07-13T14:07:54;98477.13;;;16.89;75.98
44138;BME280;29800;55.942;37.314;2023-07-13T14:11:25;98490.47;;;16.96;75.91
44138;BME280;29800;55.942;37.314;2023-07-13T14:13:55;98492.56;;;16.90;75.87
44138;BME280;29800;55.942;37.314;2023-07-13T14:16:32;98492.38;;;16.87;75.76
44138;BME280;29800;55.942;37.314;2023-07-13T14:22:29;98487.38;;;16.89;75.88
44138;BME280;29800;55.942;37.314;2023-07-13T14:25:32;98475.81;;;16.87;75.83
44138;BME280;29800;55.942;37.314;2023-07-13T14:28:26;98482.31;;;16.91;75.62
44138;BME280;29800;55.942;37.314;2023-07-13T14:37:55;98478.28;;;16.97;75.19
44138;BME280;29800;55.942;37.314;2023-07-13T14:40:53;98472.41;;;16.90;75.12
44138;BME280;29800;55.942;37.314;2023-07-13T14:43:28;98473.88;;;16.87;75.23
44138;BME280;29800;55.942;37.314;2023-07-13T14:46:33;98482.16;;;16.96;75.18
44138;BME280;29800;55.942;37.314;2023-07-13T14:49:42;98487.22;;;16.94;74.71
44138;BME280;29800;55.942;37.314;2023-07-13T15:03:35;98483.25;;;16.78;74.84
44138;BME280;29800;55.942;37.314;2023-07-13T15:06:03;98482.97;;;16.88;74.08
44138;BME280;29800;55.942;37.314;2023-07-13T15:08:30;98479.25;;;16.93;73.94
44138;BME280;29800;55.942;37.314;2023-07-13T15:10:56;98474.84;;;16.92;74.01
44138;BME280;29800;55.942;37.314;2023-07-13T15:13:26;98477.94;;;16.90;74.11
44138;BME280;29800;55.942;37.314;2023-07-13T15:15:54;98475.00;;;16.86;73.58
44138;BME280;29800;55.942;37.314;2023-07-13T15:18:22;98469.63;;;16.90;73.84
44138;BME280;29800;55.942;37.314;2023-07-13T15:20:51;98469.16;;;16.88;73.94
44138;BME280;29800;55.942;37.314;2023-07-13T15:23:22;98471.44;;;16.86;73.90
44138;BME280;29800;55.942;37.314;2023-07-13T15:25:48;98459.22;;;16.87;73.88
44138;BME280;29800;55.942;37.314;2023-07-13T15:28:15;98466.38;;;16.88;74.41
44138;BME280;29800;55.942;37.314;2023-07-13T15:30:49;98456.66;;;16.90;74.64
44138;BME280;29800;55.942;37.314;2023-07-13T15:33:26;98466.22;;;16.93;74.67
44138;BME280;29800;55.942;37.314;2023-07-13T15:35:53;98457.63;;;16.86;74.15
44138;BME280;29800;55.942;37.314;2023-07-13T15:38:22;98455.34;;;16.88;74.28
44138;BME280;29800;55.942;37.314;2023-07-13T15:40:50;98457.63;;;16.86;74.57
44138;BME280;29800;55.942;37.314;2023-07-13T15:43:18;98464.75;;;16.87;74.65
44138;BME280;29800;55.942;37.314;2023-07-13T15:45:46;98464.28;;;16.85;74.26
44138;BME280;29800;55.942;37.314;2023-07-13T15:48:17;98454.84;;;16.86;74.63
44138;BME280;29800;55.942;37.314;2023-07-13T15:50:46;98453.81;;;16.82;74.64
44138;BME280;29800;55.942;37.314;2023-07-13T15:53:18;98449.78;;;16.79;74.47
44138;BME280;29800;55.942;37.314;2023-07-13T15:55:46;98450.91;;;16.78;74.42
44138;BME280;29800;55.942;37.314;2023-07-13T15:58:12;98451.72;;;16.79;74.62
44138;BME280;29800;55.942;37.314;2023-07-13T16:00:41;98456.44;;;16.78;74.83
44138;BME280;29800;55.942;37.314;2023-07-13T16:03:08;98459.50;;;16.77;74.92
44138;BME280;29800;55.942;37.314;2023-07-13T16:05:34;98461.16;;;16.78;75.08
44138;BME280;29800;55.942;37.314;2023-07-13T16:08:01;98454.78;;;16.77;75.03
44138;BME280;29800;55.942;37.314;2023-07-13T16:10:35;98467.63;;;16.82;74.75
44138;BME280;29800;55.942;37.314;2023-07-13T16:13:25;98465.59;;;16.87;74.92
44138;BME280;29800;55.942;37.314;2023-07-13T16:15:53;98471.56;;;16.81;74.67
44138;BME280;29800;55.942;37.314;2023-07-13T16:18:22;98465.53;;;16.79;74.78
44138;BME280;29800;55.942;37.314;2023-07-13T16:20:48;98464.72;;;16.78;75.05
44138;BME280;29800;55.942;37.314;2023-07-13T16:23:17;98464.06;;;16.81;75.12
44138;BME280;29800;55.942;37.314;2023-07-13T16:25:44;98460.19;;;16.82;75.20
44138;BME280;29800;55.942;37.314;2023-07-13T16:28:11;98453.34;;;16.80;74.98
44138;BME280;29800;55.942;37.314;2023-07-13T16:30:38;98462.94;;;16.82;75.09
44138;BME280;29800;55.942;37.314;2023-07-13T16:33:05;98461.31;;;16.81;75.12
44138;BME280;29800;55.942;37.314;2023-07-13T16:35:36;98449.63;;;16.84;75.12
44138;BME280;29800;55.942;37.314;2023-07-13T16:38:05;98451.53;;;16.84;75.11
44138;BME280;29800;55.942;37.314;2023-07-13T16:40:39;98447.81;;;16.80;74.54
44138;BME280;29800;55.942;37.314;2023-07-13T16:43:05;98447.81;;;16.80;74.37
44138;BME280;29800;55.942;37.314;2023-07-13T16:45:32;98451.91;;;16.82;74.54
44138;BME280;29800;55.942;37.314;2023-07-13T16:48:13;98447.69;;;16.85;74.50
44138;BME280;29800;55.942;37.314;2023-07-13T16:50:41;98449.94;;;16.83;74.46
44138;BME280;29800;55.942;37.314;2023-07-13T16:53:23;98442.84;;;16.90;74.64
44138;BME280;29800;55.942;37.314;2023-07-13T16:55:50;98444.72;;;16.81;74.56
44138;BME280;29800;55.942;37.314;2023-07-13T16:58:17;98446.19;;;16.79;74.18
44138;BME280;29800;55.942;37.314;2023-07-13T17:00:44;98452.22;;;16.81;74.14
44138;BME280;29800;55.942;37.314;2023-07-13T17:03:10;98444.72;;;16.81;74.27
44138;BME280;29800;55.942;37.314;2023-07-13T17:05:40;98438.88;;;16.83;74.62
44138;BME280;29800;55.942;37.314;2023-07-13T17:08:16;98441.84;;;16.86;74.69
44138;BME280;29800;55.942;37.314;2023-07-13T17:10:52;98450.75;;;16.83;74.55
44138;BME280;29800;55.942;37.314;2023-07-13T17:13:21;98447.81;;;16.80;74.73
44138;BME280;29800;55.942;37.314;2023-07-13T17:15:51;98447.81;;;16.80;75.10
44138;BME280;29800;55.942;37.314;2023-07-13T17:18:29;98453.50;;;16.83;75.15
44138;BME280;29800;55.942;37.314;2023-07-13T17:21:06;98450.59;;;16.80;75.11
44138;BME280;29800;55.942;37.314;2023-07-13T17:23:33;98453.97;;;16.77;75.22
44138;BME280;29800;55.942;37.314;2023-07-13T17:26:04;98446.81;;;16.76;75.36
44138;BME280;29800;55.942;37.314;2023-07-13T17:28:31;98449.91;;;16.74;75.44
44138;BME280;29800;55.942;37.314;2023-07-13T17:30:59;98439.69;;;16.75;75.49
44138;BME280;29800;55.942;37.314;2023-07-13T17:33:29;98443.56;;;16.73;75.45
44138;BME280;29800;55.942;37.314;2023-07-13T17:35:58;98444.22;;;16.70;75.24
44138;BME280;29800;55.942;37.314;2023-07-13T17:38:36;98449.59;;;16.76;75.63
44138;BME280;29800;55.942;37.314;2023-07-13T17:41:10;98447.50;;;16.72;75.54
44138;BME280;29800;55.942;37.314;2023-07-13T17:43:38;98447.50;;;16.72;75.70
44138;BME280;29800;55.942;37.314;2023-07-13T17:46:15;98454.78;;;16.77;75.79
44138;BME280;29800;55.942;37.314;2023-07-13T17:48:44;98456.09;;;16.71;75.65
44138;BME280;29800;55.942;37.314;2023-07-13T17:51:14;98462.44;;;16.71;75.78
44138;BME280;29800;55.942;37.314;2023-07-13T17:53:41;98465.03;;;16.68;75.83
44138;BME280;29800;55.942;37.314;2023-07-13T17:56:09;98464.50;;;16.66;76.21
44138;BME280;29800;55.942;37.314;2023-07-13T17:58:36;98463.72;;;16.65;76.40
44138;BME280;29800;55.942;37.314;2023-07-13T18:01:04;98467.63;;;16.64;75.82
44138;BME280;29800;55.942;37.314;2023-07-13T18:03:37;98470.22;;;16.69;76.13
44138;BME280;29800;55.942;37.314;2023-07-13T18:06:20;98472.69;;;16.71;75.91
44138;BME280;29800;55.942;37.314;2023-07-13T18:08:59;98485.34;;;16.72;76.10
44138;BME280;29800;55.942;37.314;2023-07-13T18:11:26;98481.44;;;16.64;75.90
44138;BME280;29800;55.942;37.314;2023-07-13T18:13:54;98489.72;;;16.64;76.12
44138;BME280;29800;55.942;37.314;2023-07-13T18:16:24;98486.97;;;16.64;76.44
44138;BME280;29800;55.942;37.314;2023-07-13T18:18:57;98488.72;;;16.60;76.57
44138;BME280;29800;55.942;37.314;2023-07-13T18:21:23;98486.59;;;16.57;76.42
44138;BME280;29800;55.942;37.314;2023-07-13T18:23:52;98506.72;;;16.58;76.61
44138;BME280;29800;55.942;37.314;2023-07-13T18:26:23;98508.69;;;16.57;76.49
44138;BME280;29800;55.942;37.314;2023-07-13T18:28:50;98514.69;;;16.59;76.48
44138;BME280;29800;55.942;37.314;2023-07-13T18:31:22;98508.53;;;16.62;76.78
44138;BME280;29800;55.942;37.314;2023-07-13T18:33:50;98504.81;;;16.58;76.62
44138;BME280;29800;55.942;37.314;2023-07-13T18:36:20;98510.34;;;16.58;76.58
44138;BME280;29800;55.942;37.314;2023-07-13T18:38:46;98502.84;;;16.59;76.54
44138;BME280;29800;55.942;37.314;2023-07-13T18:41:16;98504.81;;;16.58;76.38
44138;BME280;29800;55.942;37.314;2023-07-13T18:43:44;98502.03;;;16.58;76.40
44138;BME280;29800;55.942;37.314;2023-07-13T18:46:22;98494.41;;;16.64;76.54
44138;BME280;29800;55.942;37.314;2023-07-13T18:48:49;98500.56;;;16.61;76.25
44138;BME280;29800;55.942;37.314;2023-07-13T18:51:17;98498.97;;;16.60;76.50
44138;BME280;29800;55.942;37.314;2023-07-13T18:53:43;98510.81;;;16.60;76.53
44138;BME280;29800;55.942;37.314;2023-07-13T18:56:10;98519.09;;;16.60;76.32
44138;BME280;29800;55.942;37.314;2023-07-13T18:58:38;98510.00;;;16.60;76.25
44138;BME280;29800;55.942;37.314;2023-07-13T19:01:21;98499.31;;;16.67;76.53
44138;BME280;29800;55.942;37.314;2023-07-13T19:03:50;98501.41;;;16.61;75.89
44138;BME280;29800;55.942;37.314;2023-07-13T19:06:18;98503.84;;;16.63;76.24
44138;BME280;29800;55.942;37.314;2023-07-13T19:08:45;98504.16;;;16.61;76.02
44138;BME280;29800;55.942;37.314;2023-07-13T19:11:13;98506.94;;;16.61;75.96
44138;BME280;29800;55.942;37.314;2023-07-13T19:13:41;98505.28;;;16.60;76.09
44138;BME280;29800;55.942;37.314;2023-07-13T19:16:11;98498.66;;;16.61;75.90
44138;BME280;29800;55.942;37.314;2023-07-13T19:18:38;98501.41;;;16.61;75.88
44138;BME280;29800;55.942;37.314;2023-07-13T19:21:48;98495.41;;;16.68;76.00
44138;BME280;29800;55.942;37.314;2023-07-13T19:24:15;98501.75;;;16.68;75.96
44138;BME280;29800;55.942;37.314;2023-07-13T19:26:42;98504.66;;;16.63;75.47
44138;BME280;29800;55.942;37.314;2023-07-13T19:29:13;98499.63;;;16.65;75.49